Terminal Aerodrome Forecast
Issued by NWS

Home | Current Version | Previous Version | Text Only | Print | Product List | Glossary On
Versions: 1 2 3 4 5 6 7 8 9 10 11 12 13 14 15 16 17 18 19 20
000
FTUS43 KDLH 252300
TAFHIB
TAF
KHIB 252336Z 2600/2624 02006KT P6SM -RA SCT022 OVC045
      TEMPO 2600/2602 3SM RA BR BKN015 BKN022
     FM260600 VRB03KT 1SM -DZ BR BKN050
     FM261400 VRB03KT P6SM SCT050=

USA.gov is the U.S. government's official web portal to all federal, state and local government web resources and services.